sensor_id;sensor_type;location;lat;lon;timestamp;pressure;altitude;pressure_sealevel;temperature;humidity
52927;BME280;40783;49.710;8.842;2023-03-23T00:01:04;98322.13;;;13.12;75.56
52927;BME280;40783;49.710;8.842;2023-03-23T00:03:30;98313.81;;;13.07;76.58
52927;BME280;40783;49.710;8.842;2023-03-23T00:05:57;98321.00;;;13.06;75.82
52927;BME280;40783;49.710;8.842;2023-03-23T00:08:29;98309.59;;;12.98;77.18
52927;BME280;40783;49.710;8.842;2023-03-23T00:10:55;98310.00;;;12.95;77.63
52927;BME280;40783;49.710;8.842;2023-03-23T00:13:26;98312.50;;;12.96;77.72
52927;BME280;40783;49.710;8.842;2023-03-23T00:15:52;98306.66;;;12.93;78.59
52927;BME280;40783;49.710;8.842;2023-03-23T00:18:20;98306.03;;;12.90;77.96
52927;BME280;40783;49.710;8.842;2023-03-23T00:20:50;98316.78;;;12.90;78.59
52927;BME280;40783;49.710;8.842;2023-03-23T00:23:19;98310.41;;;12.98;78.53
52927;BME280;40783;49.710;8.842;2023-03-23T00:25:48;98312.03;;;12.93;78.44
52927;BME280;40783;49.710;8.842;2023-03-23T00:28:16;98308.78;;;12.97;78.08
52927;BME280;40783;49.710;8.842;2023-03-23T00:30:41;98308.34;;;12.94;77.92
52927;BME280;40783;49.710;8.842;2023-03-23T00:33:07;98299.25;;;12.95;77.66
52927;BME280;40783;49.710;8.842;2023-03-23T00:35:32;98293.88;;;12.95;78.52
52927;BME280;40783;49.710;8.842;2023-03-23T00:38:01;98299.66;;;12.91;78.42
52927;BME280;40783;49.710;8.842;2023-03-23T00:40:27;98291.03;;;12.96;77.61
52927;BME280;40783;49.710;8.842;2023-03-23T00:42:56;98284.00;;;12.95;77.67
52927;BME280;40783;49.710;8.842;2023-03-23T00:45:21;98285.84;;;12.95;77.45
52927;BME280;40783;49.710;8.842;2023-03-23T00:47:46;98289.38;;;12.95;77.30
52927;BME280;40783;49.710;8.842;2023-03-23T00:50:15;98279.44;;;12.96;77.99
52927;BME280;40783;49.710;8.842;2023-03-23T00:52:42;98289.75;;;12.92;78.16
52927;BME280;40783;49.710;8.842;2023-03-23T00:55:07;98277.53;;;12.89;78.44
52927;BME280;40783;49.710;8.842;2023-03-23T00:57:32;98292.22;;;12.94;77.77
52927;BME280;40783;49.710;8.842;2023-03-23T00:59:57;98295.94;;;12.93;77.56
52927;BME280;40783;49.710;8.842;2023-03-23T01:02:23;98297.59;;;12.94;78.25
52927;BME280;40783;49.710;8.842;2023-03-23T01:04:49;98298.44;;;12.94;78.45
52927;BME280;40783;49.710;8.842;2023-03-23T01:07:17;98295.13;;;12.92;77.97
52927;BME280;40783;49.710;8.842;2023-03-23T01:09:43;98292.63;;;12.90;77.24
52927;BME280;40783;49.710;8.842;2023-03-23T01:12:09;98295.69;;;12.87;77.55
52927;BME280;40783;49.710;8.842;2023-03-23T01:14:35;98290.31;;;12.87;76.84
52927;BME280;40783;49.710;8.842;2023-03-23T01:17:02;98282.47;;;12.86;77.28
52927;BME280;40783;49.710;8.842;2023-03-23T01:19:30;98284.72;;;12.82;77.20
52927;BME280;40783;49.710;8.842;2023-03-23T01:21:57;98284.72;;;12.82;76.83
52927;BME280;40783;49.710;8.842;2023-03-23T01:24:23;98272.31;;;12.81;77.54
52927;BME280;40783;49.710;8.842;2023-03-23T01:26:48;98284.72;;;12.82;77.52
52927;BME280;40783;49.710;8.842;2023-03-23T01:29:15;98276.88;;;12.81;76.51
52927;BME280;40783;49.710;8.842;2023-03-23T01:31:40;98271.03;;;12.77;77.36
52927;BME280;40783;49.710;8.842;2023-03-23T01:34:07;98263.38;;;12.74;77.42
52927;BME280;40783;49.710;8.842;2023-03-23T01:36:33;98267.34;;;12.78;76.76
52927;BME280;40783;49.710;8.842;2023-03-23T01:38:58;98265.28;;;12.80;76.83
52927;BME280;40783;49.710;8.842;2023-03-23T01:41:24;98265.69;;;12.77;77.09
52927;BME280;40783;49.710;8.842;2023-03-23T01:46:34;98261.59;;;12.81;75.75
52927;BME280;40783;49.710;8.842;2023-03-23T01:49:11;98259.09;;;12.80;76.81
52927;BME280;40783;49.710;8.842;2023-03-23T01:51:40;98258.25;;;12.79;76.78
52927;BME280;40783;49.710;8.842;2023-03-23T01:54:07;98260.94;;;12.79;77.07
52927;BME280;40783;49.710;8.842;2023-03-23T01:56:38;98247.06;;;12.69;77.40
52927;BME280;40783;49.710;8.842;2023-03-23T01:59:06;98247.06;;;12.69;76.51
52927;BME280;40783;49.710;8.842;2023-03-23T02:01:32;98256.13;;;12.68;77.39
52927;BME280;40783;49.710;8.842;2023-03-23T02:04:01;98252.81;;;12.66;77.65
52927;BME280;40783;49.710;8.842;2023-03-23T02:06:27;98255.28;;;12.67;77.84
52927;BME280;40783;49.710;8.842;2023-03-23T02:08:52;98244.56;;;12.67;77.35
52927;BME280;40783;49.710;8.842;2023-03-23T02:11:18;98244.56;;;12.67;77.62
52927;BME280;40783;49.710;8.842;2023-03-23T02:13:46;98242.13;;;12.72;76.70
52927;BME280;40783;49.710;8.842;2023-03-23T02:16:14;98231.78;;;12.69;76.94
52927;BME280;40783;49.710;8.842;2023-03-23T02:18:57;98220.88;;;12.71;76.83
52927;BME280;40783;49.710;8.842;2023-03-23T02:24:13;98227.66;;;12.67;76.97
52927;BME280;40783;49.710;8.842;2023-03-23T02:27:03;98238.81;;;12.70;76.66
52927;BME280;40783;49.710;8.842;2023-03-23T02:29:51;98241.28;;;12.72;76.71
52927;BME280;40783;49.710;8.842;2023-03-23T02:32:26;98245.41;;;12.68;76.64
52927;BME280;40783;49.710;8.842;2023-03-23T02:34:57;98247.06;;;12.69;77.14
52927;BME280;40783;49.710;8.842;2023-03-23T02:37:37;98249.97;;;12.74;76.38
52927;BME280;40783;49.710;8.842;2023-03-23T02:43:00;98236.97;;;12.71;76.97
52927;BME280;40783;49.710;8.842;2023-03-23T02:45:27;98239.25;;;12.74;75.96
52927;BME280;40783;49.710;8.842;2023-03-23T02:47:56;98225.59;;;12.69;76.57
52927;BME280;40783;49.710;8.842;2023-03-23T02:50:24;98219.81;;;12.72;76.93
52927;BME280;40783;49.710;8.842;2023-03-23T02:52:52;98205.38;;;12.73;76.57
52927;BME280;40783;49.710;8.842;2023-03-23T02:55:18;98210.75;;;12.73;77.15
52927;BME280;40783;49.710;8.842;2023-03-23T02:57:44;98204.38;;;12.74;76.46
52927;BME280;40783;49.710;8.842;2023-03-23T03:00:11;98201.69;;;12.74;76.37
52927;BME280;40783;49.710;8.842;2023-03-23T03:02:38;98197.19;;;12.81;76.16
52927;BME280;40783;49.710;8.842;2023-03-23T03:18:08;98190.53;;;12.70;77.24
52927;BME280;40783;49.710;8.842;2023-03-23T03:20:37;98193.88;;;12.79;76.69
52927;BME280;40783;49.710;8.842;2023-03-23T03:23:03;98192.72;;;12.60;78.74
52927;BME280;40783;49.710;8.842;2023-03-23T03:25:29;98186.78;;;12.65;77.89
52927;BME280;40783;49.710;8.842;2023-03-23T03:27:55;98199.16;;;12.66;77.40
52927;BME280;40783;49.710;8.842;2023-03-23T03:30:23;98193.75;;;12.59;78.44
52927;BME280;40783;49.710;8.842;2023-03-23T03:32:53;98205.31;;;12.59;79.60
52927;BME280;40783;49.710;8.842;2023-03-23T03:35:23;98214.00;;;12.61;78.64
52927;BME280;40783;49.710;8.842;2023-03-23T03:37:53;98198.28;;;12.58;79.03
52927;BME280;40783;49.710;8.842;2023-03-23T03:40:20;98198.69;;;12.55;79.58
52927;BME280;40783;49.710;8.842;2023-03-23T03:42:45;98202.25;;;12.63;78.36
52927;BME280;40783;49.710;8.842;2023-03-23T03:45:15;98197.66;;;12.56;79.33
52927;BME280;40783;49.710;8.842;2023-03-23T03:47:41;98198.28;;;12.58;79.09
52927;BME280;40783;49.710;8.842;2023-03-23T03:50:06;98195.84;;;12.64;78.66
52927;BME280;40783;49.710;8.842;2023-03-23T03:52:32;98190.88;;;12.60;79.34
52927;BME280;40783;49.710;8.842;2023-03-23T03:54:57;98204.47;;;12.59;79.01
52927;BME280;40783;49.710;8.842;2023-03-23T03:57:22;98197.41;;;12.51;80.83
52927;BME280;40783;49.710;8.842;2023-03-23T03:59:47;98200.72;;;12.53;79.98
52927;BME280;40783;49.710;8.842;2023-03-23T04:02:15;98189.59;;;12.56;79.49
52927;BME280;40783;49.710;8.842;2023-03-23T04:04:45;98190.00;;;12.53;80.41
52927;BME280;40783;49.710;8.842;2023-03-23T04:07:10;98188.72;;;12.49;80.67
52927;BME280;40783;49.710;8.842;2023-03-23T04:09:39;98181.34;;;12.58;80.07
52927;BME280;40783;49.710;8.842;2023-03-23T04:12:07;98178.88;;;12.56;81.43
52927;BME280;40783;49.710;8.842;2023-03-23T04:14:32;98172.28;;;12.59;80.65
52927;BME280;40783;49.710;8.842;2023-03-23T04:16:59;98175.56;;;12.54;82.38
52927;BME280;40783;49.710;8.842;2023-03-23T04:19:27;98178.38;;;12.46;84.41
52927;BME280;40783;49.710;8.842;2023-03-23T04:21:55;98172.63;;;12.49;84.02
52927;BME280;40783;49.710;8.842;2023-03-23T04:24:23;98185.03;;;12.50;85.61
52927;BME280;40783;49.710;8.842;2023-03-23T04:26:49;98178.38;;;12.46;86.91
52927;BME280;40783;49.710;8.842;2023-03-23T04:29:19;98185.91;;;12.57;85.63
52927;BME280;40783;49.710;8.842;2023-03-23T04:31:47;98185.91;;;12.57;85.48
52927;BME280;40783;49.710;8.842;2023-03-23T04:34:12;98176.84;;;12.58;85.87
52927;BME280;40783;49.710;8.842;2023-03-23T04:36:40;98185.50;;;12.60;87.79
52927;BME280;40783;49.710;8.842;2023-03-23T04:39:08;98185.50;;;12.60;87.49
52927;BME280;40783;49.710;8.842;2023-03-23T04:41:37;98190.03;;;12.60;88.33
52927;BME280;40783;49.710;8.842;2023-03-23T04:44:03;98186.72;;;12.58;88.98
52927;BME280;40783;49.710;8.842;2023-03-23T04:46:29;98194.47;;;12.46;91.79
52927;BME280;40783;49.710;8.842;2023-03-23T04:48:57;98199.44;;;12.49;90.32
52927;BME280;40783;49.710;8.842;2023-03-23T04:51:24;98201.75;;;12.52;88.84
52927;BME280;40783;49.710;8.842;2023-03-23T04:53:52;98194.97;;;12.56;88.61
52927;BME280;40783;49.710;8.842;2023-03-23T04:56:21;98201.59;;;12.60;88.63
52927;BME280;40783;49.710;8.842;2023-03-23T04:58:49;98211.94;;;12.64;88.45
52927;BME280;40783;49.710;8.842;2023-03-23T05:01:14;98200.44;;;12.70;87.50
52927;BME280;40783;49.710;8.842;2023-03-23T05:03:43;98206.84;;;12.69;86.62
52927;BME280;40783;49.710;8.842;2023-03-23T05:06:08;98213.59;;;12.65;89.14
52927;BME280;40783;49.710;8.842;2023-03-23T05:08:36;98207.16;;;12.59;91.87
52927;BME280;40783;49.710;8.842;2023-03-23T05:11:05;98206.09;;;12.53;91.86
52927;BME280;40783;49.710;8.842;2023-03-23T05:13:33;98216.19;;;12.51;93.29
52927;BME280;40783;49.710;8.842;2023-03-23T05:16:02;98204.34;;;12.45;94.17
52927;BME280;40783;49.710;8.842;2023-03-23T05:18:27;98209.28;;;12.42;94.55
52927;BME280;40783;49.710;8.842;2023-03-23T05:20:55;98226.28;;;12.49;93.05
52927;BME280;40783;49.710;8.842;2023-03-23T05:23:26;98227.94;;;12.50;93.98
52927;BME280;40783;49.710;8.842;2023-03-23T05:25:52;98215.16;;;12.52;94.88
52927;BME280;40783;49.710;8.842;2023-03-23T05:28:18;98231.25;;;12.52;94.50
52927;BME280;40783;49.710;8.842;2023-03-23T05:30:43;98227.53;;;12.53;94.59
52927;BME280;40783;49.710;8.842;2023-03-23T05:33:11;98231.25;;;12.52;92.70
52927;BME280;40783;49.710;8.842;2023-03-23T05:35:38;98234.19;;;12.57;93.86
52927;BME280;40783;49.710;8.842;2023-03-23T05:38:04;98237.44;;;12.53;93.40
52927;BME280;40783;49.710;8.842;2023-03-23T05:40:29;98245.69;;;12.51;93.70
52927;BME280;40783;49.710;8.842;2023-03-23T05:42:57;98243.63;;;12.53;92.47
52927;BME280;40783;49.710;8.842;2023-03-23T05:45:26;98238.69;;;12.57;94.68
52927;BME280;40783;49.710;8.842;2023-03-23T05:47:53;98241.97;;;12.52;96.16
52927;BME280;40783;49.710;8.842;2023-03-23T05:50:19;98234.06;;;12.44;97.02
52927;BME280;40783;49.710;8.842;2023-03-23T05:52:45;98236.94;;;12.42;98.32
52927;BME280;40783;49.710;8.842;2023-03-23T05:55:11;98226.22;;;12.42;98.32
52927;BME280;40783;49.710;8.842;2023-03-23T05:57:37;98235.72;;;12.45;98.72
52927;BME280;40783;49.710;8.842;2023-03-23T06:00:02;98238.19;;;12.46;97.87
52927;BME280;40783;49.710;8.842;2023-03-23T06:02:36;98243.63;;;12.53;97.22
52927;BME280;40783;49.710;8.842;2023-03-23T06:05:04;98239.94;;;12.54;95.49
52927;BME280;40783;49.710;8.842;2023-03-23T06:07:29;98235.38;;;12.55;95.26
52927;BME280;40783;49.710;8.842;2023-03-23T06:09:55;98239.16;;;12.60;95.40
52927;BME280;40783;49.710;8.842;2023-03-23T06:12:22;98246.56;;;12.58;95.36
52927;BME280;40783;49.710;8.842;2023-03-23T06:14:48;98236.22;;;12.55;95.88
52927;BME280;40783;49.710;8.842;2023-03-23T06:17:16;98246.56;;;12.58;96.43
52927;BME280;40783;49.710;8.842;2023-03-23T06:19:42;98248.41;;;12.58;96.19
52927;BME280;40783;49.710;8.842;2023-03-23T06:22:07;98241.59;;;12.55;97.16
52927;BME280;40783;49.710;8.842;2023-03-23T06:24:35;98246.31;;;12.53;96.17
52927;BME280;40783;49.710;8.842;2023-03-23T06:27:03;98256.41;;;12.51;97.01
52927;BME280;40783;49.710;8.842;2023-03-23T06:29:30;98265.09;;;12.53;97.31
52927;BME280;40783;49.710;8.842;2023-03-23T06:32:00;98272.16;;;12.61;97.78
52927;BME280;40783;49.710;8.842;2023-03-23T06:34:27;98268.78;;;12.52;99.12
52927;BME280;40783;49.710;8.842;2023-03-23T06:36:52;98267.38;;;12.56;100.00
52927;BME280;40783;49.710;8.842;2023-03-23T06:39:18;98267.69;;;12.46;100.00
52927;BME280;40783;49.710;8.842;2023-03-23T06:41:43;98266.28;;;12.51;100.00
52927;BME280;40783;49.710;8.842;2023-03-23T06:44:08;98266.66;;;12.47;100.00
52927;BME280;40783;49.710;8.842;2023-03-23T06:46:38;98267.13;;;12.51;100.00
52927;BME280;40783;49.710;8.842;2023-03-23T06:49:03;98263.81;;;12.49;100.00
52927;BME280;40783;49.710;8.842;2023-03-23T06:51:28;98272.09;;;12.54;100.00
52927;BME280;40783;49.710;8.842;2023-03-23T06:53:53;98277.47;;;12.54;100.00
52927;BME280;40783;49.710;8.842;2023-03-23T06:56:22;98284.13;;;12.58;100.00
52927;BME280;40783;49.710;8.842;2023-03-23T06:58:47;98295.00;;;12.57;100.00
52927;BME280;40783;49.710;8.842;2023-03-23T07:01:15;98293.56;;;12.54;100.00
52927;BME280;40783;49.710;8.842;2023-03-23T07:03:42;98281.19;;;12.53;100.00
52927;BME280;40783;49.710;8.842;2023-03-23T07:06:08;98285.66;;;12.46;100.00
52927;BME280;40783;49.710;8.842;2023-03-23T07:08:37;98286.78;;;12.37;100.00
52927;BME280;40783;49.710;8.842;2023-03-23T07:11:03;98296.59;;;12.29;100.00
52927;BME280;40783;49.710;8.842;2023-03-23T07:13:33;98297.00;;;12.26;100.00
52927;BME280;40783;49.710;8.842;2023-03-23T07:15:59;98315.50;;;12.21;100.00
52927;BME280;40783;49.710;8.842;2023-03-23T07:18:25;98318.31;;;12.13;100.00
52927;BME280;40783;49.710;8.842;2023-03-23T07:20:51;98308.34;;;12.28;100.00
52927;BME280;40783;49.710;8.842;2023-03-23T07:23:17;98312.16;;;12.19;100.00
52927;BME280;40783;49.710;8.842;2023-03-23T07:25:42;98311.41;;;12.25;100.00
52927;BME280;40783;49.710;8.842;2023-03-23T07:28:08;98318.69;;;12.10;100.00
52927;BME280;40783;49.710;8.842;2023-03-23T07:30:33;98310.53;;;12.18;100.00
52927;BME280;40783;49.710;8.842;2023-03-23T07:32:59;98315.13;;;12.24;100.00
52927;BME280;40783;49.710;8.842;2023-03-23T07:35:26;98305.41;;;12.23;100.00
52927;BME280;40783;49.710;8.842;2023-03-23T07:37:51;98312.31;;;12.32;100.00
52927;BME280;40783;49.710;8.842;2023-03-23T07:40:18;98305.66;;;12.28;100.00
52927;BME280;40783;49.710;8.842;2023-03-23T07:42:46;98309.38;;;12.27;100.00
52927;BME280;40783;49.710;8.842;2023-03-23T07:45:16;98324.31;;;12.37;100.00
52927;BME280;40783;49.710;8.842;2023-03-23T07:47:41;98340.09;;;12.46;100.00
52927;BME280;40783;49.710;8.842;2023-03-23T07:50:07;98339.41;;;12.59;100.00
52927;BME280;40783;49.710;8.842;2023-03-23T07:52:33;98339.47;;;12.66;100.00
52927;BME280;40783;49.710;8.842;2023-03-23T07:54:59;98338.28;;;12.69;100.00
52927;BME280;40783;49.710;8.842;2023-03-23T07:57:27;98336.59;;;12.68;100.00
52927;BME280;40783;49.710;8.842;2023-03-23T07:59:52;98345.03;;;12.65;100.00
52927;BME280;40783;49.710;8.842;2023-03-23T08:02:20;98347.44;;;12.81;100.00
52927;BME280;40783;49.710;8.842;2023-03-23T08:04:48;98343.34;;;12.85;100.00
52927;BME280;40783;49.710;8.842;2023-03-23T08:07:13;98360.59;;;12.98;100.00
52927;BME280;40783;49.710;8.842;2023-03-23T08:09:41;98340.78;;;12.99;100.00
52927;BME280;40783;49.710;8.842;2023-03-23T08:12:06;98343.97;;;13.09;100.00
52927;BME280;40783;49.710;8.842;2023-03-23T08:14:31;98343.19;;;13.15;100.00
52927;BME280;40783;49.710;8.842;2023-03-23T08:16:57;98342.88;;;13.32;100.00
52927;BME280;40783;49.710;8.842;2023-03-23T08:19:23;98345.53;;;13.54;100.00
52927;BME280;40783;49.710;8.842;2023-03-23T08:21:49;98358.97;;;13.54;100.00
52927;BME280;40783;49.710;8.842;2023-03-23T08:24:16;98353.47;;;13.40;100.00
52927;BME280;40783;49.710;8.842;2023-03-23T08:26:44;98367.38;;;13.44;100.00
52927;BME280;40783;49.710;8.842;2023-03-23T08:29:12;98356.91;;;13.27;100.00
52927;BME280;40783;49.710;8.842;2023-03-23T08:31:41;98355.75;;;13.36;100.00
52927;BME280;40783;49.710;8.842;2023-03-23T08:34:06;98356.94;;;13.34;100.00
52927;BME280;40783;49.710;8.842;2023-03-23T08:36:32;98355.00;;;13.43;100.00
52927;BME280;40783;49.710;8.842;2023-03-23T08:38:59;98346.16;;;13.49;100.00
52927;BME280;40783;49.710;8.842;2023-03-23T08:41:24;98355.91;;;13.35;100.00
52927;BME280;40783;49.710;8.842;2023-03-23T08:43:54;98357.34;;;13.31;100.00
52927;BME280;40783;49.710;8.842;2023-03-23T08:46:19;98356.16;;;13.40;100.00
52927;BME280;40783;49.710;8.842;2023-03-23T08:48:45;98355.28;;;13.33;100.00
52927;BME280;40783;49.710;8.842;2023-03-23T08:51:11;98367.69;;;13.34;100.00
52927;BME280;40783;49.710;8.842;2023-03-23T08:53:40;98373.63;;;13.51;100.00
52927;BME280;40783;49.710;8.842;2023-03-23T08:56:07;98363.72;;;13.52;100.00
52927;BME280;40783;49.710;8.842;2023-03-23T08:58:36;98376.91;;;13.46;100.00
52927;BME280;40783;49.710;8.842;2023-03-23T09:01:05;98378.16;;;13.50;100.00
52927;BME280;40783;49.710;8.842;2023-03-23T09:03:31;98367.00;;;13.47;100.00
52927;BME280;40783;49.710;8.842;2023-03-23T09:06:03;98370.75;;;13.53;100.00
52927;BME280;40783;49.710;8.842;2023-03-23T09:08:32;98382.47;;;13.45;100.00
52927;BME280;40783;49.710;8.842;2023-03-23T09:11:01;98371.47;;;13.40;100.00
52927;BME280;40783;49.710;8.842;2023-03-23T09:13:27;98388.69;;;13.24;100.00
52927;BME280;40783;49.710;8.842;2023-03-23T09:15:54;98399.69;;;13.07;100.00
52927;BME280;40783;49.710;8.842;2023-03-23T09:18:20;98405.31;;;12.90;100.00
52927;BME280;40783;49.710;8.842;2023-03-23T09:20:49;98403.66;;;12.89;100.00
52927;BME280;40783;49.710;8.842;2023-03-23T09:23:16;98405.19;;;12.99;100.00
52927;BME280;40783;49.710;8.842;2023-03-23T09:25:41;98397.16;;;12.99;100.00
52927;BME280;40783;49.710;8.842;2023-03-23T09:28:07;98411.63;;;13.04;100.00
52927;BME280;40783;49.710;8.842;2023-03-23T09:30:33;98429.34;;;12.99;100.00
52927;BME280;40783;49.710;8.842;2023-03-23T09:32:59;98425.66;;;13.00;100.00
52927;BME280;40783;49.710;8.842;2023-03-23T09:35:26;98419.44;;;12.99;100.00
52927;BME280;40783;49.710;8.842;2023-03-23T09:37:52;98416.69;;;13.14;100.00
52927;BME280;40783;49.710;8.842;2023-03-23T09:40:18;98418.03;;;13.03;100.00
52927;BME280;40783;49.710;8.842;2023-03-23T09:50:19;98425.47;;;13.30;100.00
52927;BME280;40783;49.710;8.842;2023-03-23T09:52:54;98430.19;;;13.43;100.00
52927;BME280;40783;49.710;8.842;2023-03-23T09:55:20;98423.59;;;13.45;100.00
52927;BME280;40783;49.710;8.842;2023-03-23T09:57:51;98427.13;;;13.46;100.00
52927;BME280;40783;49.710;8.842;2023-03-23T10:02:46;98431.91;;;13.86;100.00
52927;BME280;40783;49.710;8.842;2023-03-23T10:07:44;98419.81;;;14.03;100.00
52927;BME280;40783;49.710;8.842;2023-03-23T10:10:12;98420.28;;;14.14;100.00
52927;BME280;40783;49.710;8.842;2023-03-23T10:12:41;98427.50;;;14.55;100.00
52927;BME280;40783;49.710;8.842;2023-03-23T10:15:15;98427.59;;;14.95;100.00
52927;BME280;40783;49.710;8.842;2023-03-23T10:17:44;98433.41;;;14.92;95.29
52927;BME280;40783;49.710;8.842;2023-03-23T10:22:45;98413.94;;;14.83;92.66
52927;BME280;40783;49.710;8.842;2023-03-23T10:28:32;98420.97;;;14.78;94.14
52927;BME280;40783;49.710;8.842;2023-03-23T10:33:45;98417.03;;;14.74;93.86
52927;BME280;40783;49.710;8.842;2023-03-23T10:41:11;98435.41;;;14.70;93.32
52927;BME280;40783;49.710;8.842;2023-03-23T10:43:37;98439.19;;;14.76;95.27
52927;BME280;40783;49.710;8.842;2023-03-23T10:46:05;98442.38;;;14.51;95.75
52927;BME280;40783;49.710;8.842;2023-03-23T10:48:37;98440.66;;;14.36;98.05
52927;BME280;40783;49.710;8.842;2023-03-23T10:51:03;98446.63;;;14.74;97.64
52927;BME280;40783;49.710;8.842;2023-03-23T10:53:34;98445.38;;;14.69;98.23
52927;BME280;40783;49.710;8.842;2023-03-23T10:56:02;98457.47;;;14.52;99.85
52927;BME280;40783;49.710;8.842;2023-03-23T10:58:33;98445.69;;;14.60;99.91
52927;BME280;40783;49.710;8.842;2023-03-23T11:00:59;98442.72;;;14.34;99.45
52927;BME280;40783;49.710;8.842;2023-03-23T11:03:42;98450.63;;;14.43;100.00
52927;BME280;40783;49.710;8.842;2023-03-23T11:06:19;98457.03;;;14.42;100.00
52927;BME280;40783;49.710;8.842;2023-03-23T11:08:50;98456.06;;;14.56;100.00
52927;BME280;40783;49.710;8.842;2023-03-23T11:11:18;98456.38;;;14.39;100.00
52927;BME280;40783;49.710;8.842;2023-03-23T11:13:45;98449.56;;;14.44;100.00
52927;BME280;40783;49.710;8.842;2023-03-23T11:16:10;98446.94;;;14.57;100.00
52927;BME280;40783;49.710;8.842;2023-03-23T11:18:50;98451.31;;;14.58;99.25
52927;BME280;40783;49.710;8.842;2023-03-23T11:21:19;98459.72;;;14.42;99.36
52927;BME280;40783;49.710;8.842;2023-03-23T11:23:49;98451.00;;;14.33;100.00
52927;BME280;40783;49.710;8.842;2023-03-23T11:26:16;98457.53;;;14.17;100.00
52927;BME280;40783;49.710;8.842;2023-03-23T11:28:53;98449.72;;;14.22;100.00
52927;BME280;40783;49.710;8.842;2023-03-23T11:31:21;98455.88;;;14.16;100.00
52927;BME280;40783;49.710;8.842;2023-03-23T11:33:50;98448.09;;;14.34;100.00
52927;BME280;40783;49.710;8.842;2023-03-23T11:36:16;98446.25;;;14.42;100.00
52927;BME280;40783;49.710;8.842;2023-03-23T11:38:42;98444.84;;;14.46;100.00
52927;BME280;40783;49.710;8.842;2023-03-23T11:41:09;98449.13;;;14.33;100.00
52927;BME280;40783;49.710;8.842;2023-03-23T11:43:38;98462.13;;;14.23;100.00
52927;BME280;40783;49.710;8.842;2023-03-23T11:46:05;98467.56;;;14.01;100.00
52927;BME280;40783;49.710;8.842;2023-03-23T11:48:50;98459.72;;;14.00;100.00
52927;BME280;40783;49.710;8.842;2023-03-23T11:51:27;98455.31;;;13.92;100.00
52927;BME280;40783;49.710;8.842;2023-03-23T11:56:41;98449.28;;;13.55;100.00
52927;BME280;40783;49.710;8.842;2023-03-23T11:59:11;98445.81;;;13.39;100.00
52927;BME280;40783;49.710;8.842;2023-03-23T12:14:40;98423.06;;;13.92;100.00
52927;BME280;40783;49.710;8.842;2023-03-23T12:24:28;98414.38;;;13.90;100.00
52927;BME280;40783;49.710;8.842;2023-03-23T12:32:30;98418.63;;;14.13;100.00
52927;BME280;40783;49.710;8.842;2023-03-23T12:39:56;98393.03;;;14.23;100.00
52927;BME280;40783;49.710;8.842;2023-03-23T12:53:03;98372.03;;;14.61;100.00
52927;BME280;40783;49.710;8.842;2023-03-23T12:58:05;98364.16;;;14.52;100.00
52927;BME280;40783;49.710;8.842;2023-03-23T13:00:34;98356.28;;;14.51;100.00
52927;BME280;40783;49.710;8.842;2023-03-23T13:08:33;98368.81;;;14.17;100.00
52927;BME280;40783;49.710;8.842;2023-03-23T13:11:01;98361.88;;;13.94;100.00
52927;BME280;40783;49.710;8.842;2023-03-23T13:13:43;98368.03;;;13.88;100.00
52927;BME280;40783;49.710;8.842;2023-03-23T13:21:27;98360.34;;;14.20;100.00
52927;BME280;40783;49.710;8.842;2023-03-23T13:24:03;98360.34;;;14.33;100.00
52927;BME280;40783;49.710;8.842;2023-03-23T13:26:31;98359.88;;;14.09;100.00
52927;BME280;40783;49.710;8.842;2023-03-23T13:29:11;98353.81;;;13.94;100.00
52927;BME280;40783;49.710;8.842;2023-03-23T13:31:43;98371.38;;;13.90;100.00
52927;BME280;40783;49.710;8.842;2023-03-23T13:40:20;98370.09;;;13.86;100.00
52927;BME280;40783;49.710;8.842;2023-03-23T13:49:50;98362.47;;;13.54;100.00
52927;BME280;40783;49.710;8.842;2023-03-23T13:52:17;98366.78;;;13.48;100.00
52927;BME280;40783;49.710;8.842;2023-03-23T13:54:44;98362.94;;;13.58;100.00
52927;BME280;40783;49.710;8.842;2023-03-23T13:57:32;98362.13;;;13.64;100.00
52927;BME280;40783;49.710;8.842;2023-03-23T13:59:59;98341.91;;;13.68;100.00
52927;BME280;40783;49.710;8.842;2023-03-23T14:02:32;98352.28;;;13.71;100.00
52927;BME280;40783;49.710;8.842;2023-03-23T14:05:08;98351.88;;;13.74;100.00
52927;BME280;40783;49.710;8.842;2023-03-23T14:07:49;98348.56;;;13.72;100.00
52927;BME280;40783;49.710;8.842;2023-03-23T14:10:15;98345.22;;;13.70;100.00
52927;BME280;40783;49.710;8.842;2023-03-23T14:12:42;98346.56;;;13.53;100.00
52927;BME280;40783;49.710;8.842;2023-03-23T14:15:14;98350.13;;;13.60;100.00
52927;BME280;40783;49.710;8.842;2023-03-23T14:17:42;98360.25;;;13.58;100.00
52927;BME280;40783;49.710;8.842;2023-03-23T14:20:30;98354.22;;;13.56;100.00
52927;BME280;40783;49.710;8.842;2023-03-23T14:22:58;98358.56;;;13.50;100.00
52927;BME280;40783;49.710;8.842;2023-03-23T14:25:29;98359.16;;;13.52;100.00
52927;BME280;40783;49.710;8.842;2023-03-23T14:27:56;98357.19;;;13.39;100.00
52927;BME280;40783;49.710;8.842;2023-03-23T14:30:22;98363.22;;;13.41;100.00
52927;BME280;40783;49.710;8.842;2023-03-23T14:32:49;98357.84;;;13.41;100.00
52927;BME280;40783;49.710;8.842;2023-03-23T14:37:49;98353.94;;;13.72;100.00
52927;BME280;40783;49.710;8.842;2023-03-23T14:40:16;98354.38;;;13.83;100.00
52927;BME280;40783;49.710;8.842;2023-03-23T14:42:47;98358.28;;;13.73;100.00
52927;BME280;40783;49.710;8.842;2023-03-23T14:45:14;98353.53;;;13.75;100.00
52927;BME280;40783;49.710;8.842;2023-03-23T14:47:42;98370.28;;;13.77;100.00
52927;BME280;40783;49.710;8.842;2023-03-23T14:52:49;98367.59;;;13.77;100.00
52927;BME280;40783;49.710;8.842;2023-03-23T14:55:19;98365.38;;;13.53;100.00
52927;BME280;40783;49.710;8.842;2023-03-23T14:57:45;98375.34;;;13.59;100.00
52927;BME280;40783;49.710;8.842;2023-03-23T15:00:30;98367.41;;;13.50;100.00
52927;BME280;40783;49.710;8.842;2023-03-23T15:02:57;98375.47;;;13.50;100.00